Aviation Digital Data Service (ADDS)

Output produced by METARs form (1920 UTC 18 June 2019)
found at http://www.aviationweather.gov/metar/data/
 
MGGT 181900Z 03010KT 9999 BKN022TCU 27/17 Q1025 A3027 TCU S
MGGT 181700Z 1818/1918 36008KT 9999 SCT018 TX26/1820Z TN17/1912Z 
     TEMPO 1819/1824 18008KT SCT020TCU 
     BECMG 1902/1904 FEW016 
     TEMPO 1906/1908 SCT016 
     BECMG 1915/1917 SCT018
       
MGPB 181900Z 33008KT 9999 FEW020 SCT200 33/26 Q1012 A2988
MGPB 181700Z 1818/1918 36008KT 9999 SCT018 TX31/1820Z TN24/1912Z 
     TEMPO 1821/1902 8000 TSRA FEW025CB 
     BECMG 1901/1903 00000KT FEW018 
     TEMPO 1905/1912 8000 RADZ SCT016 BKN080 
     BECMG 1914/1916 04008KT FEW018
       
MGRT 181900Z 22006KT 9999 SCT020TCU 33/24 Q1013 A2991 TCU N/NE/E/S/NW VOL. STA. MARIA Y SANTIAGUITO EN ACTIVIDAD
MGSJ 181900Z 16004KT 9999 FEW020 34/26 Q1010 A2983
MGSJ 181700Z 1818/1918 18008KT CAVOK TX32/1820Z TN24/1912Z 
     TEMPO 1820/1824 22010KT SCT020TCU 
     BECMG 1900/1902 00000KT CAVOK 
     BECMG 1915/1917 18008KT 8000 NSC